Time;durP1;ratioP1;P1;durP2;ratioP2;P2;SDS_P1;SDS_P2;PMS_P1;PMS_P2;Temp;Humidity;BMP_temperature;BMP_pressure;BME280_temperature;BME280_humidity;BME280_pressure;Samples;Min_cycle;Max_cycle;Signal;HPM_P1;HPM_P2
2022/01/08 00:00:53;;;;;;;54.08;34.58;;;;;;;;;;5034199;28;20033;-75
2022/01/08 00:03:19;;;;;;;44.10;29.58;;;;;;;;;;5033501;28;20123;-76
2022/01/08 00:05:48;;;;;;;54.60;29.55;;;;;;;;;;5033382;28;20112;-75
2022/01/08 00:08:14;;;;;;;98.90;50.10;;;;;;;;;;5034068;28;20100;-75
2022/01/08 00:10:40;;;;;;;83.95;45.65;;;;;;;;;;5033566;28;20161;-75
2022/01/08 00:13:07;;;;;;;28.08;15.57;;;;;;;;;;5033790;28;20697;-75
2022/01/08 00:15:34;;;;;;;23.52;14.80;;;;;;;;;;5033269;28;20072;-75
2022/01/08 00:18:00;;;;;;;22.40;13.45;;;;;;;;;;5019553;28;20112;-76
2022/01/08 00:20:28;;;;;;;24.48;15.02;;;;;;;;;;5033189;28;20120;-75
2022/01/08 00:22:54;;;;;;;28.73;17.60;;;;;;;;;;5034218;28;20029;-76
2022/01/08 00:25:20;;;;;;;35.50;20.38;;;;;;;;;;5032869;28;20504;-76
2022/01/08 00:27:46;;;;;;;27.98;17.13;;;;;;;;;;5033558;28;20037;-76
2022/01/08 00:30:13;;;;;;;26.13;15.80;;;;;;;;;;5033048;28;20041;-75
2022/01/08 00:32:39;;;;;;;25.73;15.00;;;;;;;;;;5033868;28;20037;-76
2022/01/08 00:35:06;;;;;;;23.05;12.70;;;;;;;;;;5033003;28;20088;-76
2022/01/08 00:37:34;;;;;;;27.17;14.07;;;;;;;;;;5033527;28;20072;-76
2022/01/08 00:40:00;;;;;;;22.60;13.85;;;;;;;;;;5033051;28;20044;-75
2022/01/08 00:42:26;;;;;;;38.67;18.85;;;;;;;;;;5033481;28;20096;-75
2022/01/08 00:44:52;;;;;;;28.70;15.15;;;;;;;;;;5033156;28;20029;-75
2022/01/08 00:47:18;;;;;;;42.78;23.30;;;;;;;;;;5032091;28;20629;-76
2022/01/08 00:49:44;;;;;;;37.58;20.55;;;;;;;;;;5032975;28;20778;-75
2022/01/08 00:52:10;;;;;;;30.83;16.63;;;;;;;;;;5033044;28;20037;-75
2022/01/08 00:54:38;;;;;;;18.88;11.18;;;;;;;;;;5033077;28;20475;-76
2022/01/08 00:57:04;;;;;;;16.83;8.57;;;;;;;;;;5032487;28;20147;-75
2022/01/08 00:59:30;;;;;;;13.85;7.85;;;;;;;;;;5032834;28;20073;-75
2022/01/08 01:01:56;;;;;;;15.23;7.65;;;;;;;;;;5031044;28;20056;-75
2022/01/08 01:04:22;;;;;;;16.90;9.88;;;;;;;;;;5032573;28;20132;-75
2022/01/08 01:06:48;;;;;;;15.27;9.07;;;;;;;;;;5032483;28;20887;-75
2022/01/08 01:09:14;;;;;;;18.27;9.77;;;;;;;;;;5032800;28;20026;-75
2022/01/08 01:11:40;;;;;;;19.10;10.05;;;;;;;;;;5029743;28;21868;-75
2022/01/08 01:14:07;;;;;;;16.83;9.57;;;;;;;;;;5013180;28;20425;-75
2022/01/08 01:16:33;;;;;;;18.70;11.48;;;;;;;;;;5012356;28;20096;-75
2022/01/08 01:19:01;;;;;;;17.83;10.35;;;;;;;;;;5032783;28;20037;-75
2022/01/08 01:21:27;;;;;;;9.52;4.00;;;;;;;;;;5012952;28;20030;-76
2022/01/08 01:23:54;;;;;;;11.80;5.72;;;;;;;;;;5029966;28;20108;-75
2022/01/08 01:26:24;;;;;;;7.80;2.67;;;;;;;;;;5032547;28;20045;-75
2022/01/08 01:49:18;;;;;;;21.00;11.85;;;;;;;;;;5017968;28;20661;-75
2022/01/08 01:51:45;;;;;;;27.73;16.00;;;;;;;;;;5024319;28;20566;-75
2022/01/08 01:54:11;;;;;;;15.38;9.65;;;;;;;;;;5031650;28;20029;-75
2022/01/08 01:56:37;;;;;;;24.20;14.88;;;;;;;;;;5032150;28;20029;-76
2022/01/08 01:59:04;;;;;;;17.98;9.23;;;;;;;;;;5031625;28;20041;-75
2022/01/08 02:01:30;;;;;;;10.77;3.28;;;;;;;;;;5031653;28;20649;-75
2022/01/08 02:03:56;;;;;;;12.98;7.15;;;;;;;;;;5030886;28;20132;-75
2022/01/08 02:06:22;;;;;;;17.13;7.50;;;;;;;;;;5031704;28;20481;-75
2022/01/08 02:08:48;;;;;;;6.80;3.00;;;;;;;;;;5027757;28;20044;-76
2022/01/08 02:11:17;;;;;;;6.15;1.35;;;;;;;;;;5031641;28;20075;-75
2022/01/08 02:13:43;;;;;;;23.83;13.25;;;;;;;;;;5030826;28;20029;-75
2022/01/08 02:16:16;;;;;;;30.33;15.60;;;;;;;;;;5031649;28;20045;-75
2022/01/08 02:18:43;;;;;;;11.15;6.45;;;;;;;;;;5031453;28;20073;-75
2022/01/08 02:21:09;;;;;;;11.80;5.97;;;;;;;;;;5030651;28;20087;-75
2022/01/08 02:23:35;;;;;;;11.68;6.00;;;;;;;;;;5030933;28;20072;-75
2022/01/08 02:26:05;;;;;;;24.75;13.68;;;;;;;;;;5031436;28;20053;-75
2022/01/08 02:28:31;;;;;;;11.45;5.95;;;;;;;;;;5024000;28;20029;-75
2022/01/08 02:30:57;;;;;;;32.60;27.25;;;;;;;;;;5031182;28;20064;-75
2022/01/08 02:33:29;;;;;;;18.95;11.60;;;;;;;;;;5030717;28;20100;-76
2022/01/08 02:35:55;;;;;;;14.52;9.20;;;;;;;;;;5031552;28;20033;-75
2022/01/08 02:38:23;;;;;;;20.10;15.02;;;;;;;;;;5030411;28;20037;-75
2022/01/08 02:40:57;;;;;;;19.13;12.80;;;;;;;;;;5030874;28;20555;-75
2022/01/08 02:43:24;;;;;;;11.23;6.72;;;;;;;;;;5029843;28;20032;-75
2022/01/08 02:45:50;;;;;;;13.75;8.02;;;;;;;;;;5031279;28;20712;-75
2022/01/08 02:48:16;;;;;;;13.38;6.75;;;;;;;;;;5030420;28;20032;-75
2022/01/08 02:50:42;;;;;;;11.95;6.60;;;;;;;;;;5030664;28;20033;-75
2022/01/08 02:53:08;;;;;;;13.73;6.90;;;;;;;;;;5031100;28;20132;-76
2022/01/08 02:55:36;;;;;;;15.85;9.50;;;;;;;;;;5030508;28;20659;-75
2022/01/08 02:58:03;;;;;;;14.35;8.13;;;;;;;;;;5030997;28;20068;-75
2022/01/08 03:00:29;;;;;;;15.23;8.75;;;;;;;;;;5029990;28;20033;-75
2022/01/08 03:02:55;;;;;;;16.20;9.40;;;;;;;;;;5030515;28;20053;-75
2022/01/08 03:05:21;;;;;;;18.30;10.93;;;;;;;;;;5030055;28;20044;-75
2022/01/08 03:07:48;;;;;;;27.38;16.23;;;;;;;;;;5030932;28;20033;-75
2022/01/08 03:10:16;;;;;;;21.58;15.30;;;;;;;;;;5029998;28;20484;-75
2022/01/08 03:12:42;;;;;;;21.42;10.93;;;;;;;;;;5030725;28;20039;-75
2022/01/08 03:15:12;;;;;;;17.33;9.70;;;;;;;;;;5029956;28;20060;-76
2022/01/08 03:17:38;;;;;;;16.92;10.38;;;;;;;;;;5030998;28;20460;-76
2022/01/08 03:20:07;;;;;;;18.20;11.23;;;;;;;;;;5030029;28;20476;-75
2022/01/08 03:22:33;;;;;;;14.30;8.93;;;;;;;;;;5030971;28;20040;-75
2022/01/08 03:25:00;;;;;;;13.63;6.25;;;;;;;;;;5029083;28;20407;-75
2022/01/08 03:27:26;;;;;;;13.93;7.50;;;;;;;;;;5030272;28;20037;-75
2022/01/08 03:29:52;;;;;;;17.55;10.00;;;;;;;;;;5030464;28;20060;-75
2022/01/08 03:32:20;;;;;;;18.23;9.93;;;;;;;;;;5030035;28;20052;-75
2022/01/08 03:34:46;;;;;;;14.27;9.13;;;;;;;;;;5030345;28;20033;-75
2022/01/08 03:37:12;;;;;;;15.48;8.18;;;;;;;;;;5029885;28;20048;-75
2022/01/08 03:39:39;;;;;;;16.65;9.07;;;;;;;;;;5030469;28;20041;-76
2022/01/08 03:42:05;;;;;;;10.38;6.00;;;;;;;;;;5029141;28;20053;-75
2022/01/08 03:44:31;;;;;;;12.52;8.80;;;;;;;;;;5030188;28;20033;-75
2022/01/08 03:47:21;;;;;;;14.50;8.32;;;;;;;;;;5029765;28;20609;-75
2022/01/08 03:49:43;;;;;;;16.70;10.70;;;;;;;;;;5030328;28;20045;-76
2022/01/08 03:52:09;;;;;;;15.27;10.32;;;;;;;;;;5030074;28;20030;-75
2022/01/08 03:54:35;;;;;;;18.20;10.52;;;;;;;;;;5030182;28;20037;-76
2022/01/08 03:57:01;;;;;;;20.15;11.73;;;;;;;;;;5029833;28;20045;-75
2022/01/08 03:59:27;;;;;;;17.67;10.85;;;;;;;;;;5030108;28;20112;-75
2022/01/08 04:01:53;;;;;;;14.55;9.45;;;;;;;;;;5030174;28;20786;-76
2022/01/08 04:04:19;;;;;;;21.48;12.25;;;;;;;;;;5029614;28;20044;-75
2022/01/08 04:06:45;;;;;;;17.42;11.43;;;;;;;;;;5010440;28;20036;-75
2022/01/08 04:09:11;;;;;;;16.00;8.68;;;;;;;;;;5024994;28;20041;-75
2022/01/08 04:11:37;;;;;;;20.15;12.02;;;;;;;;;;5030206;28;20758;-75
2022/01/08 04:14:03;;;;;;;14.32;9.40;;;;;;;;;;5029665;28;20029;-75
2022/01/08 04:16:33;;;;;;;19.45;12.20;;;;;;;;;;5029875;28;20045;-75
2022/01/08 04:18:59;;;;;;;17.30;11.60;;;;;;;;;;5029415;28;20038;-75
2022/01/08 04:23:52;;;;;;;15.93;9.77;;;;;;;;;;5029471;28;20044;-75
2022/01/08 04:26:19;;;;;;;16.83;9.02;;;;;;;;;;5030264;28;20060;-76
2022/01/08 04:28:45;;;;;;;17.73;11.00;;;;;;;;;;5029649;28;20040;-76
2022/01/08 04:31:11;;;;;;;26.95;14.63;;;;;;;;;;5029776;28;20901;-75
2022/01/08 04:33:37;;;;;;;20.73;14.85;;;;;;;;;;5029643;28;20033;-75
2022/01/08 04:36:03;;;;;;;22.60;15.85;;;;;;;;;;5032022;28;20099;-75
2022/01/08 04:38:31;;;;;;;17.88;13.73;;;;;;;;;;5033466;28;20443;-76
2022/01/08 04:40:58;;;;;;;25.77;15.15;;;;;;;;;;5020664;28;20404;-76
2022/01/08 04:43:24;;;;;;;19.02;12.85;;;;;;;;;;5033303;28;20033;-75
2022/01/08 04:45:51;;;;;;;20.33;14.23;;;;;;;;;;5031006;28;20021;-76
2022/01/08 04:48:17;;;;;;;21.10;13.43;;;;;;;;;;5033411;28;20021;-75
2022/01/08 04:50:43;;;;;;;16.35;10.45;;;;;;;;;;5033559;28;20084;-75
2022/01/08 04:53:10;;;;;;;13.05;9.15;;;;;;;;;;5033496;28;20452;-75
2022/01/08 04:55:36;;;;;;;13.23;9.23;;;;;;;;;;5033389;28;20084;-75
2022/01/08 04:58:02;;;;;;;15.80;10.40;;;;;;;;;;5033509;28;20033;-75
2022/01/08 05:00:28;;;;;;;16.63;13.20;;;;;;;;;;5032445;28;20894;-75
2022/01/08 05:02:54;;;;;;;23.73;16.20;;;;;;;;;;5032880;28;20136;-75
2022/01/08 05:05:20;;;;;;;17.55;10.85;;;;;;;;;;5032629;28;20029;-76
2022/01/08 05:07:46;;;;;;;19.15;11.25;;;;;;;;;;5033321;28;20029;-75
2022/01/08 05:10:13;;;;;;;22.10;12.68;;;;;;;;;;5032720;28;20534;-75
2022/01/08 05:12:39;;;;;;;30.85;16.02;;;;;;;;;;5033246;28;20052;-75
2022/01/08 05:15:05;;;;;;;28.23;17.33;;;;;;;;;;5032079;28;20033;-75
2022/01/08 05:17:33;;;;;;;17.13;12.57;;;;;;;;;;5032732;28;20080;-75
2022/01/08 05:20:02;;;;;;;22.42;15.63;;;;;;;;;;5032358;28;20033;-75
2022/01/08 05:22:31;;;;;;;16.55;10.02;;;;;;;;;;5032928;28;20029;-75
2022/01/08 05:24:57;;;;;;;16.38;9.32;;;;;;;;;;5032540;28;20064;-75
2022/01/08 05:27:24;;;;;;;17.08;12.57;;;;;;;;;;5032357;28;20072;-75
2022/01/08 05:29:51;;;;;;;14.65;10.77;;;;;;;;;;5031694;28;20436;-75
2022/01/08 05:32:17;;;;;;;13.82;8.38;;;;;;;;;;5032739;28;20464;-75
2022/01/08 05:34:47;;;;;;;11.32;8.50;;;;;;;;;;5032633;28;20042;-75
2022/01/08 05:37:14;;;;;;;10.90;7.60;;;;;;;;;;5031559;28;20746;-75
2022/01/08 05:39:40;;;;;;;9.32;6.63;;;;;;;;;;5032635;28;20043;-75
2022/01/08 05:42:06;;;;;;;13.77;8.32;;;;;;;;;;5032113;28;20480;-75
2022/01/08 05:44:33;;;;;;;12.07;7.60;;;;;;;;;;5032756;28;20043;-74
2022/01/08 05:46:59;;;;;;;12.38;7.20;;;;;;;;;;5030837;28;20033;-74
2022/01/08 05:49:25;;;;;;;10.02;6.85;;;;;;;;;;5032239;28;20064;-74
2022/01/08 05:51:51;;;;;;;11.60;6.75;;;;;;;;;;5031706;28;20079;-75
2022/01/08 05:54:17;;;;;;;11.57;8.82;;;;;;;;;;5031975;28;20029;-74
2022/01/08 05:56:43;;;;;;;12.00;7.00;;;;;;;;;;5031619;28;20388;-74
2022/01/08 05:59:09;;;;;;;13.85;8.82;;;;;;;;;;5032131;28;20033;-74
2022/01/08 06:01:36;;;;;;;12.73;8.93;;;;;;;;;;5030658;28;20041;-74
2022/01/08 06:04:02;;;;;;;13.40;9.80;;;;;;;;;;5031256;28;20095;-74
2022/01/08 06:06:28;;;;;;;15.07;9.52;;;;;;;;;;5030620;28;20112;-75
2022/01/08 06:08:54;;;;;;;18.25;10.43;;;;;;;;;;5031656;28;20078;-75
2022/01/08 06:11:20;;;;;;;34.40;17.70;;;;;;;;;;5030267;28;20084;-75
2022/01/08 06:13:46;;;;;;;49.05;23.10;;;;;;;;;;5030455;28;20037;-75
2022/01/08 06:16:12;;;;;;;43.58;23.88;;;;;;;;;;5028159;28;20037;-75
2022/01/08 06:18:39;;;;;;;41.17;19.88;;;;;;;;;;5030313;28;20873;-75
2022/01/08 06:21:05;;;;;;;36.10;18.65;;;;;;;;;;5030323;28;20030;-75
2022/01/08 06:23:31;;;;;;;31.23;16.77;;;;;;;;;;5030900;28;20042;-74
2022/01/08 06:25:58;;;;;;;33.08;18.88;;;;;;;;;;5030890;28;20025;-75
2022/01/08 06:28:24;;;;;;;42.38;22.08;;;;;;;;;;5030469;28;20493;-75
2022/01/08 06:30:50;;;;;;;32.83;18.45;;;;;;;;;;5030295;28;20033;-75
2022/01/08 06:33:17;;;;;;;37.75;23.48;;;;;;;;;;5030152;28;20037;-75
2022/01/08 06:35:43;;;;;;;40.97;24.38;;;;;;;;;;5031031;28;20464;-75
2022/01/08 06:38:09;;;;;;;28.42;16.55;;;;;;;;;;5030376;28;20385;-75
2022/01/08 06:40:35;;;;;;;32.25;21.55;;;;;;;;;;5031022;28;20042;-75
2022/01/08 06:43:02;;;;;;;15.90;10.27;;;;;;;;;;5028066;28;20033;-75
2022/01/08 06:45:28;;;;;;;10.88;7.35;;;;;;;;;;5030817;28;20038;-75
2022/01/08 06:47:54;;;;;;;18.60;11.98;;;;;;;;;;5029264;28;20071;-75
2022/01/08 06:50:20;;;;;;;27.48;14.10;;;;;;;;;;5030824;28;20116;-75
2022/01/08 06:52:46;;;;;;;31.23;16.60;;;;;;;;;;5030061;28;20169;-75
2022/01/08 06:55:12;;;;;;;37.53;23.90;;;;;;;;;;5030548;28;20557;-75
2022/01/08 06:57:38;;;;;;;41.85;22.65;;;;;;;;;;5030205;28;20041;-75
2022/01/08 07:00:04;;;;;;;37.97;24.40;;;;;;;;;;5030421;28;20159;-75
2022/01/08 07:02:30;;;;;;;39.55;23.77;;;;;;;;;;5029090;28;20044;-75
2022/01/08 07:04:56;;;;;;;33.53;20.85;;;;;;;;;;5030287;28;20071;-75
2022/01/08 07:07:23;;;;;;;32.33;19.30;;;;;;;;;;5030311;28;20029;-75
2022/01/08 07:09:49;;;;;;;29.48;16.73;;;;;;;;;;5028015;28;20120;-75
2022/01/08 07:12:15;;;;;;;22.17;13.65;;;;;;;;;;5013779;28;20073;-75
2022/01/08 07:14:41;;;;;;;16.02;10.07;;;;;;;;;;5029946;28;20065;-75
2022/01/08 07:17:07;;;;;;;16.13;8.63;;;;;;;;;;5029755;28;20040;-75
2022/01/08 07:19:33;;;;;;;16.70;9.82;;;;;;;;;;5028700;28;20408;-75
2022/01/08 07:22:00;;;;;;;15.00;7.00;;;;;;;;;;5030555;28;20033;-75
2022/01/08 07:24:26;;;;;;;11.38;5.47;;;;;;;;;;5026517;28;20033;-75
2022/01/08 07:26:52;;;;;;;12.73;6.43;;;;;;;;;;5030028;28;20065;-74
2022/01/08 07:29:18;;;;;;;11.23;7.38;;;;;;;;;;5029040;28;20061;-75
2022/01/08 07:31:44;;;;;;;12.55;7.75;;;;;;;;;;5030008;28;20111;-75
2022/01/08 07:34:10;;;;;;;14.52;8.85;;;;;;;;;;5028625;28;20499;-74
2022/01/08 07:36:36;;;;;;;14.02;9.57;;;;;;;;;;5030101;28;20104;-75
2022/01/08 07:39:02;;;;;;;17.13;9.93;;;;;;;;;;5028133;28;20045;-75
2022/01/08 07:41:28;;;;;;;13.40;8.75;;;;;;;;;;5030025;28;20064;-75
2022/01/08 07:43:54;;;;;;;12.50;8.30;;;;;;;;;;5029279;28;20038;-75
2022/01/08 07:46:20;;;;;;;18.08;11.57;;;;;;;;;;5021260;28;20034;-75
2022/01/08 07:48:46;;;;;;;14.50;9.18;;;;;;;;;;5029945;28;20034;-75
2022/01/08 07:51:12;;;;;;;14.48;8.82;;;;;;;;;;5030378;28;20065;-74
2022/01/08 07:53:38;;;;;;;12.38;7.80;;;;;;;;;;5033059;28;20064;-74
2022/01/08 07:56:05;;;;;;;12.48;8.13;;;;;;;;;;5029832;28;20025;-75
2022/01/08 07:58:31;;;;;;;22.73;9.95;;;;;;;;;;5028540;28;20037;-74
2022/01/08 08:00:57;;;;;;;18.58;9.63;;;;;;;;;;5025831;28;20723;-74
2022/01/08 08:03:23;;;;;;;22.10;9.30;;;;;;;;;;5035560;28;20067;-74
2022/01/08 08:05:50;;;;;;;19.52;10.80;;;;;;;;;;5026260;28;20022;-75
2022/01/08 08:08:17;;;;;;;25.27;11.88;;;;;;;;;;5028679;28;20045;-75
2022/01/08 08:10:43;;;;;;;23.65;10.65;;;;;;;;;;5030493;28;20027;-74
2022/01/08 08:13:09;;;;;;;32.53;14.13;;;;;;;;;;5033522;28;20064;-74
2022/01/08 08:15:35;;;;;;;35.53;14.15;;;;;;;;;;5032088;28;20033;-74
2022/01/08 08:18:01;;;;;;;25.25;12.45;;;;;;;;;;5038483;28;20033;-74
2022/01/08 08:20:27;;;;;;;19.17;9.68;;;;;;;;;;5039385;28;20044;-74
2022/01/08 08:22:53;;;;;;;28.73;10.98;;;;;;;;;;5029749;28;20033;-75
2022/01/08 08:25:19;;;;;;;25.85;11.25;;;;;;;;;;5034287;28;20025;-74
2022/01/08 08:27:46;;;;;;;30.75;12.88;;;;;;;;;;5025458;28;20723;-74
2022/01/08 08:30:13;;;;;;;35.42;13.82;;;;;;;;;;5040702;28;20112;-73
2022/01/08 08:32:39;;;;;;;31.15;14.73;;;;;;;;;;5030581;28;20091;-74
2022/01/08 08:35:05;;;;;;;30.25;14.60;;;;;;;;;;5033077;28;20069;-74
2022/01/08 08:37:31;;;;;;;37.90;17.55;;;;;;;;;;5032859;28;20045;-74
2022/01/08 08:39:57;;;;;;;28.55;14.90;;;;;;;;;;5033086;28;20070;-73
2022/01/08 08:42:23;;;;;;;29.80;15.15;;;;;;;;;;5030562;28;20048;-73
2022/01/08 08:44:49;;;;;;;30.75;14.38;;;;;;;;;;5031096;28;20061;-74
2022/01/08 08:47:15;;;;;;;32.67;17.25;;;;;;;;;;5031942;28;20751;-74
2022/01/08 08:49:41;;;;;;;30.33;14.35;;;;;;;;;;5031811;28;20025;-74
2022/01/08 08:52:07;;;;;;;22.55;12.40;;;;;;;;;;5027584;28;20035;-74
2022/01/08 08:54:33;;;;;;;25.33;14.77;;;;;;;;;;5030481;28;20061;-74
2022/01/08 08:57:01;;;;;;;27.63;17.90;;;;;;;;;;5031187;28;20057;-74
2022/01/08 08:59:27;;;;;;;26.40;15.23;;;;;;;;;;5030694;28;20026;-74
2022/01/08 09:01:53;;;;;;;20.65;13.18;;;;;;;;;;5029927;28;20044;-74
2022/01/08 09:04:19;;;;;;;21.48;13.43;;;;;;;;;;5029011;28;20045;-74
2022/01/08 09:06:45;;;;;;;21.35;12.45;;;;;;;;;;5032699;28;20117;-74
2022/01/08 09:09:11;;;;;;;18.95;10.85;;;;;;;;;;5030159;28;20065;-74
2022/01/08 09:11:37;;;;;;;21.10;12.57;;;;;;;;;;5024913;28;20567;-75
2022/01/08 09:14:03;;;;;;;17.65;12.23;;;;;;;;;;5031549;28;20758;-74
2022/01/08 09:16:29;;;;;;;22.42;12.82;;;;;;;;;;5031007;28;20037;-75
2022/01/08 09:18:55;;;;;;;32.40;14.77;;;;;;;;;;5031572;28;20034;-74
2022/01/08 09:21:21;;;;;;;22.10;13.00;;;;;;;;;;5030926;28;20104;-74
2022/01/08 09:23:47;;;;;;;16.45;10.30;;;;;;;;;;5029045;28;20037;-74
2022/01/08 09:26:13;;;;;;;14.57;9.75;;;;;;;;;;5029638;28;20035;-74
2022/01/08 09:28:40;;;;;;;12.45;7.70;;;;;;;;;;5027764;28;20033;-74
2022/01/08 09:31:06;;;;;;;13.32;8.05;;;;;;;;;;5031270;28;20751;-75
2022/01/08 09:33:32;;;;;;;25.88;16.08;;;;;;;;;;5030302;28;20056;-74
2022/01/08 09:35:59;;;;;;;28.02;17.45;;;;;;;;;;5018830;28;20091;-74
2022/01/08 09:38:25;;;;;;;33.97;21.17;;;;;;;;;;5028474;28;20041;-74
2022/01/08 09:40:51;;;;;;;44.30;21.90;;;;;;;;;;5018885;28;20079;-74
2022/01/08 09:43:18;;;;;;;33.15;16.45;;;;;;;;;;5030460;28;20088;-75
2022/01/08 09:45:44;;;;;;;17.75;11.15;;;;;;;;;;5031934;28;20408;-75
2022/01/08 09:48:10;;;;;;;18.50;8.48;;;;;;;;;;5039964;28;20044;-75
2022/01/08 09:50:36;;;;;;;14.02;8.20;;;;;;;;;;5032128;28;20034;-74
2022/01/08 09:53:02;;;;;;;14.07;7.38;;;;;;;;;;5032530;28;20083;-74
2022/01/08 09:55:29;;;;;;;20.95;9.32;;;;;;;;;;5032352;28;20100;-74
2022/01/08 09:57:55;;;;;;;17.20;11.68;;;;;;;;;;5028938;28;20037;-75
2022/01/08 10:00:21;;;;;;;27.85;16.77;;;;;;;;;;5029149;28;20388;-75
2022/01/08 10:02:47;;;;;;;27.30;17.35;;;;;;;;;;5027634;28;20052;-75
2022/01/08 10:05:15;;;;;;;21.50;13.35;;;;;;;;;;5027600;28;20064;-75
2022/01/08 10:07:42;;;;;;;17.30;10.95;;;;;;;;;;5028412;28;20033;-75
2022/01/08 10:10:15;;;;;;;21.80;12.00;;;;;;;;;;5027963;28;20069;-75
2022/01/08 10:12:48;;;;;;;17.02;10.68;;;;;;;;;;5036828;28;20048;-75
2022/01/08 10:18:01;;;;;;;19.48;12.00;;;;;;;;;;5026293;28;20052;-76
2022/01/08 10:20:32;;;;;;;17.92;10.88;;;;;;;;;;5026531;28;20069;-75
2022/01/08 10:23:12;;;;;;;19.98;12.77;;;;;;;;;;5030967;28;20029;-75
2022/01/08 10:25:41;;;;;;;24.00;14.40;;;;;;;;;;5033457;28;20038;-75
2022/01/08 10:28:07;;;;;;;20.15;12.27;;;;;;;;;;5032105;28;20037;-76
2022/01/08 10:30:33;;;;;;;21.55;12.20;;;;;;;;;;5043035;28;20067;-75
2022/01/08 10:33:00;;;;;;;31.38;18.38;;;;;;;;;;5030940;28;20037;-75
2022/01/08 10:35:55;;;;;;;26.13;17.15;;;;;;;;;;5022880;28;20038;-75
2022/01/08 10:38:21;;;;;;;22.20;14.73;;;;;;;;;;5008816;28;20140;-75
2022/01/08 10:40:47;;;;;;;25.92;16.67;;;;;;;;;;5031092;28;20128;-76
2022/01/08 10:43:22;;;;;;;28.50;16.70;;;;;;;;;;5030716;28;20679;-75
2022/01/08 10:45:49;;;;;;;29.83;17.77;;;;;;;;;;5023606;28;20800;-75
2022/01/08 10:48:24;;;;;;;29.08;18.77;;;;;;;;;;5025238;28;20036;-75
2022/01/08 10:50:50;;;;;;;42.28;23.63;;;;;;;;;;5028889;28;20033;-75
2022/01/08 10:53:16;;;;;;;26.02;13.52;;;;;;;;;;5026847;28;20044;-75
2022/01/08 10:55:42;;;;;;;20.70;12.90;;;;;;;;;;5024089;28;20033;-75
2022/01/08 10:58:08;;;;;;;23.50;15.73;;;;;;;;;;5027295;28;20038;-75
2022/01/08 11:00:34;;;;;;;18.92;11.75;;;;;;;;;;5020204;28;20076;-76
2022/01/08 11:03:00;;;;;;;15.88;8.93;;;;;;;;;;5032724;28;20045;-76
2022/01/08 11:05:28;;;;;;;19.17;11.02;;;;;;;;;;5027676;28;20821;-76
2022/01/08 11:08:12;;;;;;;18.92;11.10;;;;;;;;;;5026028;28;20473;-75
2022/01/08 11:10:38;;;;;;;19.40;11.52;;;;;;;;;;5023095;28;20040;-76
2022/01/08 11:13:04;;;;;;;20.08;12.40;;;;;;;;;;5030926;28;20064;-75
2022/01/08 11:15:49;;;;;;;30.27;16.38;;;;;;;;;;5029948;28;20083;-75
2022/01/08 11:18:16;;;;;;;27.00;15.18;;;;;;;;;;5030608;28;20037;-76
2022/01/08 11:20:44;;;;;;;29.80;15.55;;;;;;;;;;5022437;28;20472;-75
2022/01/08 11:23:11;;;;;;;20.73;12.43;;;;;;;;;;5028874;28;20029;-76
2022/01/08 11:25:38;;;;;;;19.88;13.52;;;;;;;;;;5018960;28;20041;-76
2022/01/08 11:28:05;;;;;;;21.55;12.50;;;;;;;;;;5030942;28;20029;-76
2022/01/08 11:30:33;;;;;;;22.42;15.10;;;;;;;;;;5025715;28;20040;-75
2022/01/08 11:33:06;;;;;;;26.50;15.60;;;;;;;;;;5030605;28;20481;-75
2022/01/08 11:35:33;;;;;;;23.05;14.75;;;;;;;;;;5027600;28;20739;-75
2022/01/08 11:38:03;;;;;;;25.60;16.80;;;;;;;;;;5030674;28;20040;-76
2022/01/08 11:40:29;;;;;;;25.92;14.63;;;;;;;;;;5015643;28;20045;-76
2022/01/08 11:42:58;;;;;;;26.45;16.23;;;;;;;;;;5025050;28;20036;-75
2022/01/08 11:45:32;;;;;;;28.48;17.00;;;;;;;;;;5028046;28;20473;-75
2022/01/08 11:47:59;;;;;;;22.20;14.57;;;;;;;;;;5034889;28;20056;-75
2022/01/08 11:50:27;;;;;;;24.33;14.63;;;;;;;;;;5029017;28;20033;-75
2022/01/08 11:53:12;;;;;;;24.67;13.60;;;;;;;;;;5028597;28;20061;-75
2022/01/08 11:55:38;;;;;;;21.45;13.75;;;;;;;;;;5028704;28;20037;-75
2022/01/08 11:58:18;;;;;;;19.88;12.68;;;;;;;;;;5029767;28;20526;-75
2022/01/08 12:00:56;;;;;;;20.40;13.43;;;;;;;;;;5029957;28;20029;-75
2022/01/08 12:03:33;;;;;;;20.80;12.80;;;;;;;;;;5027300;28;20123;-76
2022/01/08 12:06:18;;;;;;;30.45;16.17;;;;;;;;;;5021932;28;20550;-76
2022/01/08 12:09:19;;;;;;;20.73;13.80;;;;;;;;;;5025491;28;20034;-75
2022/01/08 12:11:46;;;;;;;20.75;13.27;;;;;;;;;;5011235;28;20041;-75
2022/01/08 12:14:13;;;;;;;19.33;12.73;;;;;;;;;;5029626;28;20392;-75
2022/01/08 12:16:40;;;;;;;19.95;12.35;;;;;;;;;;5025382;28;20034;-75
2022/01/08 12:19:08;;;;;;;20.75;11.07;;;;;;;;;;5030557;28;20057;-75
2022/01/08 12:21:41;;;;;;;22.00;11.82;;;;;;;;;;5034548;28;20477;-76
2022/01/08 12:24:20;;;;;;;18.40;9.35;;;;;;;;;;5024570;28;20045;-75
2022/01/08 12:26:46;;;;;;;16.38;10.27;;;;;;;;;;5029093;28;20036;-75
2022/01/08 12:29:31;;;;;;;15.98;10.27;;;;;;;;;;5025502;28;20044;-75
2022/01/08 12:32:37;;;;;;;17.65;9.90;;;;;;;;;;5023226;28;20485;-76
2022/01/08 12:35:17;;;;;;;27.50;12.35;;;;;;;;;;4904739;29;20097;-75
2022/01/08 12:37:44;;;;;;;25.20;14.07;;;;;;;;;;5017330;28;20037;-76
2022/01/08 12:40:12;;;;;;;28.52;17.33;;;;;;;;;;5031320;28;20029;-76
2022/01/08 12:42:45;;;;;;;27.85;18.15;;;;;;;;;;5017862;28;20111;-76
2022/01/08 12:45:20;;;;;;;27.45;15.63;;;;;;;;;;5034260;28;20029;-76
2022/01/08 12:48:01;;;;;;;20.02;12.15;;;;;;;;;;5022321;28;20456;-75
2022/01/08 12:50:29;;;;;;;19.00;12.27;;;;;;;;;;5027664;28;20060;-75
2022/01/08 12:53:04;;;;;;;18.98;11.70;;;;;;;;;;5029417;28;20033;-75
2022/01/08 12:55:41;;;;;;;20.50;11.38;;;;;;;;;;5019341;28;20395;-76
2022/01/08 12:58:17;;;;;;;18.17;10.48;;;;;;;;;;5034908;28;20033;-76
2022/01/08 13:00:52;;;;;;;18.45;10.88;;;;;;;;;;5032426;28;20372;-75
2022/01/08 13:03:22;;;;;;;18.63;11.50;;;;;;;;;;5031570;28;20786;-76
2022/01/08 13:05:48;;;;;;;23.08;14.82;;;;;;;;;;5032866;28;20041;-76
2022/01/08 13:08:22;;;;;;;23.77;16.15;;;;;;;;;;5032931;28;20033;-76
2022/01/08 13:10:48;;;;;;;33.42;23.77;;;;;;;;;;5035404;28;20498;-75
2022/01/08 13:13:15;;;;;;;27.60;17.17;;;;;;;;;;5045845;28;20116;-76
2022/01/08 13:15:41;;;;;;;22.42;13.43;;;;;;;;;;5032170;28;20040;-75
2022/01/08 13:18:16;;;;;;;28.63;18.23;;;;;;;;;;5020721;28;20054;-75
2022/01/08 13:20:43;;;;;;;26.52;17.70;;;;;;;;;;5031000;28;20043;-75
2022/01/08 13:23:12;;;;;;;26.55;16.30;;;;;;;;;;5038418;28;20068;-75
2022/01/08 13:25:38;;;;;;;28.10;18.00;;;;;;;;;;5021173;28;20674;-75
2022/01/08 13:28:04;;;;;;;24.52;15.20;;;;;;;;;;5018870;28;20025;-75
2022/01/08 13:30:30;;;;;;;32.70;22.15;;;;;;;;;;5041568;28;20553;-75
2022/01/08 13:33:03;;;;;;;20.30;11.98;;;;;;;;;;5052728;28;20078;-75
2022/01/08 13:35:30;;;;;;;21.63;12.38;;;;;;;;;;5049006;28;20083;-75
2022/01/08 13:37:56;;;;;;;13.90;6.95;;;;;;;;;;5034186;28;20037;-75
2022/01/08 13:40:25;;;;;;;14.60;7.88;;;;;;;;;;5031462;28;20516;-76
2022/01/08 13:42:52;;;;;;;21.17;11.93;;;;;;;;;;5032385;28;20029;-75
2022/01/08 13:45:25;;;;;;;20.40;10.68;;;;;;;;;;5031682;28;20065;-75
2022/01/08 13:47:57;;;;;;;15.95;7.80;;;;;;;;;;5032339;28;20017;-75
2022/01/08 13:50:29;;;;;;;10.60;5.32;;;;;;;;;;5025090;28;20030;-75
2022/01/08 13:52:59;;;;;;;;;;;;;;;;;;5030692;28;20037;-75
2022/01/08 13:55:25;;;;;;;12.63;6.60;;;;;;;;;;5029480;28;19920;-75
2022/01/08 13:58:11;;;;;;;12.25;5.25;;;;;;;;;;5030742;28;20044;-75
2022/01/08 14:00:45;;;;;;;7.97;3.92;;;;;;;;;;5030238;28;20120;-75
2022/01/08 14:03:18;;;;;;;12.25;6.53;;;;;;;;;;5030681;28;20751;-74
2022/01/08 14:05:44;;;;;;;10.60;5.43;;;;;;;;;;5031094;28;20025;-74
2022/01/08 14:08:10;;;;;;;13.77;6.43;;;;;;;;;;5029676;28;20030;-74
2022/01/08 14:10:38;;;;;;;18.40;7.28;;;;;;;;;;5029372;28;20029;-74
2022/01/08 14:13:05;;;;;;;12.43;6.47;;;;;;;;;;5029017;28;20033;-75
2022/01/08 14:15:31;;;;;;;17.02;8.60;;;;;;;;;;5032635;28;20373;-74
2022/01/08 14:18:06;;;;;;;11.07;4.55;;;;;;;;;;5033442;28;20044;-76
2022/01/08 14:20:32;;;;;;;13.98;7.00;;;;;;;;;;5030815;28;20033;-74
2022/01/08 14:23:09;;;;;;;12.80;7.25;;;;;;;;;;5029248;28;20052;-75
2022/01/08 14:25:37;;;;;;;14.50;6.55;;;;;;;;;;5029240;28;20025;-75
2022/01/08 14:28:19;;;;;;;15.25;8.23;;;;;;;;;;5030472;28;20108;-75
2022/01/08 14:30:46;;;;;;;24.55;13.98;;;;;;;;;;5030804;28;20030;-74
2022/01/08 14:33:12;;;;;;;25.17;15.18;;;;;;;;;;5030447;28;20083;-75
2022/01/08 14:35:40;;;;;;;35.95;18.25;;;;;;;;;;5028420;28;20057;-75
2022/01/08 14:38:06;;;;;;;32.33;17.52;;;;;;;;;;5031269;28;20025;-75
2022/01/08 14:40:33;;;;;;;38.70;21.45;;;;;;;;;;5029072;28;20684;-76
2022/01/08 14:42:59;;;;;;;20.55;12.57;;;;;;;;;;5031373;28;20030;-75
2022/01/08 14:45:25;;;;;;;14.50;8.10;;;;;;;;;;5030155;28;20041;-75
2022/01/08 14:47:51;;;;;;;15.20;8.27;;;;;;;;;;5030171;28;20029;-75
2022/01/08 14:50:18;;;;;;;16.92;8.85;;;;;;;;;;5021171;28;20029;-75